Time;durP1;ratioP1;P1;durP2;ratioP2;P2;SDS_P1;SDS_P2;PMS_P1;PMS_P2;Temp;Humidity;BMP_temperature;BMP_pressure;BME280_temperature;BME280_humidity;BME280_pressure;Samples;Min_cycle;Max_cycle;Signal;HPM_P1;HPM_P2
2023/10/06 00:00:40;;;;;;;2.05;1.40;;;;;;;;;;2103685;28;20032;-63
2023/10/06 00:01:59;;;;;;;1.70;1.20;;;;;;;;;;2102705;28;20614;-63
2023/10/06 00:03:20;;;;;;;5.53;1.20;;;;;;;;;;2103516;28;20028;-64
2023/10/06 00:04:41;;;;;;;2.35;1.35;;;;;;;;;;2104624;28;20089;-63
2023/10/06 00:06:00;;;;;;;3.70;1.40;;;;;;;;;;2104556;28;20024;-63
2023/10/06 00:07:20;;;;;;;4.28;2.00;;;;;;;;;;2101135;28;20489;-63
2023/10/06 00:08:40;;;;;;;2.45;1.50;;;;;;;;;;2099085;28;20444;-63
2023/10/06 00:10:00;;;;;;;3.35;1.65;;;;;;;;;;2104709;28;20041;-62
2023/10/06 00:11:29;;;;;;;1.75;1.02;;;;;;;;;;2094968;28;20024;-63
2023/10/06 00:12:53;;;;;;;2.80;1.33;;;;;;;;;;2101187;28;20021;-62
2023/10/06 00:14:38;;;;;;;3.30;1.45;;;;;;;;;;2102290;28;20020;-63
2023/10/06 00:16:01;;;;;;;2.92;1.35;;;;;;;;;;2102570;28;20035;-63
2023/10/06 00:17:21;;;;;;;3.08;1.40;;;;;;;;;;2104448;28;20032;-62
2023/10/06 00:18:40;;;;;;;3.33;1.42;;;;;;;;;;2101543;28;20024;-62
2023/10/06 00:20:00;;;;;;;1.33;1.00;;;;;;;;;;2094632;28;20037;-63
2023/10/06 00:21:21;;;;;;;1.83;1.67;;;;;;;;;;2100001;28;20028;-63
2023/10/06 00:22:40;;;;;;;3.08;1.10;;;;;;;;;;2102588;28;20020;-62
2023/10/06 00:23:59;;;;;;;1.08;0.98;;;;;;;;;;2101444;28;20056;-62
2023/10/06 00:25:24;;;;;;;4.78;1.42;;;;;;;;;;2103560;28;20024;-62
2023/10/06 00:26:43;;;;;;;1.38;1.17;;;;;;;;;;2100199;28;20024;-62
2023/10/06 00:28:03;;;;;;;2.83;1.23;;;;;;;;;;2102385;28;20062;-62
2023/10/06 00:29:23;;;;;;;4.95;1.60;;;;;;;;;;2103124;28;20020;-62
2023/10/06 00:30:42;;;;;;;2.03;1.20;;;;;;;;;;2102051;28;20032;-62
2023/10/06 00:32:21;;;;;;;1.63;1.20;;;;;;;;;;2101617;28;20033;-63
2023/10/06 00:33:42;;;;;;;4.47;1.52;;;;;;;;;;2093350;28;20707;-62
2023/10/06 00:35:11;;;;;;;2.90;1.33;;;;;;;;;;2101680;28;20028;-62
2023/10/06 00:36:30;;;;;;;1.35;1.25;;;;;;;;;;2101383;28;20401;-63
2023/10/06 00:37:50;;;;;;;1.27;1.00;;;;;;;;;;2101950;28;20037;-63
2023/10/06 00:39:12;;;;;;;2.58;1.20;;;;;;;;;;2100525;28;20043;-62
2023/10/06 00:40:33;;;;;;;2.15;0.95;;;;;;;;;;2099746;28;20028;-63
2023/10/06 00:41:56;;;;;;;2.63;1.30;;;;;;;;;;2101751;28;20040;-63
2023/10/06 00:43:16;;;;;;;4.47;1.35;;;;;;;;;;2102822;28;20107;-63
2023/10/06 00:44:35;;;;;;;1.73;1.20;;;;;;;;;;2102541;28;20337;-62
2023/10/06 00:46:00;;;;;;;1.33;1.13;;;;;;;;;;2101326;28;21110;-62
2023/10/06 00:47:20;;;;;;;3.90;1.33;;;;;;;;;;2103022;28;20044;-63
2023/10/06 00:48:41;;;;;;;3.13;1.33;;;;;;;;;;2102856;28;20020;-63
2023/10/06 00:50:05;;;;;;;3.80;1.20;;;;;;;;;;2102404;28;20028;-63
2023/10/06 00:51:26;;;;;;;2.85;1.60;;;;;;;;;;2102286;28;20032;-62
2023/10/06 00:52:45;;;;;;;1.98;1.42;;;;;;;;;;2101245;28;20032;-63
2023/10/06 00:54:04;;;;;;;2.25;1.38;;;;;;;;;;2102307;28;20044;-62
2023/10/06 00:55:23;;;;;;;2.22;1.20;;;;;;;;;;2103523;28;20032;-64
2023/10/06 00:56:42;;;;;;;1.73;1.13;;;;;;;;;;2103649;28;20051;-62
2023/10/06 00:58:03;;;;;;;1.38;1.20;;;;;;;;;;2100117;28;20334;-63
2023/10/06 00:59:23;;;;;;;2.70;1.17;;;;;;;;;;2093003;28;20040;-62
2023/10/06 01:00:42;;;;;;;3.67;1.63;;;;;;;;;;2098250;28;20534;-63
2023/10/06 01:02:01;;;;;;;2.25;1.23;;;;;;;;;;2101069;28;20024;-63
2023/10/06 01:03:21;;;;;;;2.03;1.33;;;;;;;;;;2100960;28;20481;-63
2023/10/06 01:04:45;;;;;;;2.10;1.30;;;;;;;;;;2102187;28;20040;-62
2023/10/06 01:06:12;;;;;;;2.80;1.52;;;;;;;;;;2100942;28;20036;-62
2023/10/06 01:07:31;;;;;;;1.10;1.00;;;;;;;;;;2100494;28;20107;-62
2023/10/06 01:08:55;;;;;;;1.80;1.23;;;;;;;;;;2101902;28;20489;-63
2023/10/06 01:10:17;;;;;;;2.92;1.30;;;;;;;;;;2100553;28;20072;-63
2023/10/06 01:11:46;;;;;;;2.05;1.58;;;;;;;;;;2102091;28;20024;-63
2023/10/06 01:13:12;;;;;;;2.00;1.13;;;;;;;;;;2099534;28;20544;-63
2023/10/06 01:14:34;;;;;;;2.70;1.55;;;;;;;;;;2102756;28;20036;-64
2023/10/06 01:15:56;;;;;;;2.72;1.35;;;;;;;;;;2102054;28;20028;-63
2023/10/06 01:17:18;;;;;;;1.52;1.42;;;;;;;;;;2102119;28;20484;-63
2023/10/06 01:18:41;;;;;;;1.65;1.27;;;;;;;;;;2102994;28;20040;-63
2023/10/06 01:19:59;;;;;;;3.38;1.80;;;;;;;;;;2101771;28;20488;-63
2023/10/06 01:21:28;;;;;;;2.50;1.40;;;;;;;;;;2102141;28;20016;-63
2023/10/06 01:22:52;;;;;;;2.40;1.30;;;;;;;;;;2102602;28;20460;-62
2023/10/06 01:24:13;;;;;;;2.85;1.38;;;;;;;;;;2100435;28;20036;-62
2023/10/06 01:25:34;;;;;;;3.00;1.60;;;;;;;;;;2092092;28;20029;-63
2023/10/06 01:26:54;;;;;;;2.80;1.70;;;;;;;;;;2097236;28;20032;-62
2023/10/06 01:28:13;;;;;;;4.22;1.50;;;;;;;;;;2100495;28;20032;-62
2023/10/06 01:29:32;;;;;;;4.72;1.55;;;;;;;;;;2100891;28;20512;-62
2023/10/06 01:30:51;;;;;;;2.40;1.58;;;;;;;;;;2101833;28;20392;-62
2023/10/06 01:32:10;;;;;;;3.05;1.58;;;;;;;;;;2093548;28;20036;-63
2023/10/06 01:33:30;;;;;;;1.98;1.20;;;;;;;;;;2098602;28;20036;-62
2023/10/06 01:34:50;;;;;;;3.58;1.52;;;;;;;;;;2103808;28;20484;-64
2023/10/06 01:36:13;;;;;;;4.45;1.67;;;;;;;;;;2103585;28;20036;-62
2023/10/06 01:37:33;;;;;;;2.80;1.50;;;;;;;;;;2101489;28;20131;-64
2023/10/06 01:38:52;;;;;;;2.60;1.52;;;;;;;;;;2101569;28;20540;-62
2023/10/06 01:41:36;;;;;;;2.50;1.60;;;;;;;;;;2098556;28;20021;-62
2023/10/06 01:42:56;;;;;;;2.28;1.83;;;;;;;;;;2104094;28;20020;-62
2023/10/06 01:44:15;;;;;;;1.77;1.40;;;;;;;;;;2104399;28;20045;-62
2023/10/06 01:45:35;;;;;;;2.20;1.50;;;;;;;;;;2099884;28;20020;-62
2023/10/06 01:46:53;;;;;;;2.85;1.83;;;;;;;;;;2092986;28;20940;-62
2023/10/06 01:49:33;;;;;;;3.30;1.45;;;;;;;;;;2101763;28;20056;-62
2023/10/06 01:50:54;;;;;;;2.50;1.58;;;;;;;;;;2099013;28;20054;-62
2023/10/06 01:52:19;;;;;;;3.22;1.45;;;;;;;;;;2099308;28;20032;-63
2023/10/06 01:53:40;;;;;;;6.93;1.83;;;;;;;;;;2101484;28;20028;-62
2023/10/06 01:55:03;;;;;;;3.70;1.75;;;;;;;;;;2101246;28;20084;-62
2023/10/06 01:56:24;;;;;;;4.03;1.42;;;;;;;;;;2100995;28;20024;-62
2023/10/06 01:57:44;;;;;;;3.90;1.55;;;;;;;;;;2100484;28;20036;-62
2023/10/06 01:59:05;;;;;;;3.10;1.60;;;;;;;;;;2091838;28;20032;-64
2023/10/06 02:00:31;;;;;;;2.80;1.80;;;;;;;;;;2096134;28;20103;-64
2023/10/06 02:01:50;;;;;;;2.72;1.33;;;;;;;;;;2095308;28;20032;-63
2023/10/06 02:03:10;;;;;;;4.85;1.40;;;;;;;;;;2085963;28;20032;-63
2023/10/06 02:04:40;;;;;;;6.43;2.00;;;;;;;;;;2093331;28;20021;-63
2023/10/06 02:05:59;;;;;;;2.22;1.58;;;;;;;;;;2098891;28;20095;-63
2023/10/06 02:07:18;;;;;;;4.35;1.50;;;;;;;;;;2097989;28;20417;-63
2023/10/06 02:08:38;;;;;;;5.50;1.67;;;;;;;;;;2095603;28;20040;-64
2023/10/06 02:09:57;;;;;;;3.78;1.80;;;;;;;;;;2100194;28;20036;-63
2023/10/06 02:11:16;;;;;;;3.78;1.90;;;;;;;;;;2103813;28;20032;-63
2023/10/06 02:12:37;;;;;;;4.45;1.73;;;;;;;;;;2102122;28;20493;-63
2023/10/06 02:13:57;;;;;;;2.55;1.33;;;;;;;;;;2103542;28;20052;-63
2023/10/06 02:15:16;;;;;;;4.82;1.73;;;;;;;;;;2103024;28;20492;-62
2023/10/06 02:16:35;;;;;;;3.78;1.42;;;;;;;;;;2102853;28;20115;-63
2023/10/06 02:17:54;;;;;;;1.98;1.58;;;;;;;;;;2101607;28;20107;-63
2023/10/06 02:19:16;;;;;;;2.97;2.35;;;;;;;;;;2098877;28;20036;-63
2023/10/06 02:20:35;;;;;;;6.60;2.33;;;;;;;;;;2101506;28;20032;-63
2023/10/06 02:21:54;;;;;;;4.40;3.45;;;;;;;;;;2101939;28;20029;-63
2023/10/06 02:23:13;;;;;;;6.55;4.00;;;;;;;;;;2102957;28;20024;-63
2023/10/06 02:24:32;;;;;;;4.75;3.08;;;;;;;;;;2102295;28;20099;-62
2023/10/06 02:25:51;;;;;;;4.25;2.38;;;;;;;;;;2103576;28;20390;-62
2023/10/06 02:27:11;;;;;;;2.22;2.03;;;;;;;;;;2101956;28;20497;-62
2023/10/06 02:28:30;;;;;;;3.53;1.77;;;;;;;;;;2102697;28;20089;-63
2023/10/06 02:29:49;;;;;;;1.70;1.60;;;;;;;;;;2102270;28;20040;-63
2023/10/06 02:31:10;;;;;;;3.88;2.20;;;;;;;;;;2095248;28;20107;-64
2023/10/06 02:32:30;;;;;;;2.80;2.00;;;;;;;;;;2101976;28;20024;-63
2023/10/06 02:33:49;;;;;;;3.67;2.20;;;;;;;;;;2104999;28;20481;-62
2023/10/06 02:35:08;;;;;;;5.57;3.30;;;;;;;;;;2104548;28;20032;-62
2023/10/06 02:36:28;;;;;;;4.88;2.58;;;;;;;;;;2103569;28;20028;-62
2023/10/06 02:37:49;;;;;;;5.97;3.63;;;;;;;;;;2101111;28;20051;-63
2023/10/06 02:39:09;;;;;;;6.55;3.38;;;;;;;;;;2103280;28;20024;-63
2023/10/06 02:40:37;;;;;;;9.50;3.03;;;;;;;;;;2104192;28;20517;-64
2023/10/06 02:41:57;;;;;;;7.53;3.53;;;;;;;;;;2103936;28;20036;-64
2023/10/06 02:43:20;;;;;;;6.72;5.00;;;;;;;;;;2101368;28;20033;-63
2023/10/06 02:44:40;;;;;;;4.97;4.28;;;;;;;;;;2105665;28;20020;-63
2023/10/06 02:46:07;;;;;;;6.60;4.20;;;;;;;;;;2103345;28;20024;-63
2023/10/06 02:47:27;;;;;;;6.43;3.15;;;;;;;;;;2102519;28;20033;-62
2023/10/06 02:48:49;;;;;;;3.00;2.55;;;;;;;;;;2091168;28;20032;-62
2023/10/06 02:50:12;;;;;;;3.60;2.00;;;;;;;;;;2088286;28;20036;-63
2023/10/06 02:51:41;;;;;;;4.15;2.45;;;;;;;;;;2100056;28;20040;-63
2023/10/06 02:53:00;;;;;;;3.45;2.78;;;;;;;;;;2101196;28;20070;-62
2023/10/06 02:55:38;;;;;;;3.50;3.20;;;;;;;;;;2096977;28;20027;-63
2023/10/06 02:56:57;;;;;;;6.57;1.95;;;;;;;;;;2102793;28;20128;-63
2023/10/06 02:58:26;;;;;;;4.05;1.83;;;;;;;;;;2100688;28;20056;-63
2023/10/06 02:59:48;;;;;;;3.85;1.80;;;;;;;;;;2102932;28;20060;-63
2023/10/06 03:01:11;;;;;;;2.10;2.00;;;;;;;;;;2103549;28;20032;-63
2023/10/06 03:02:34;;;;;;;3.50;2.17;;;;;;;;;;2102736;28;20028;-63
2023/10/06 03:04:06;;;;;;;5.30;2.88;;;;;;;;;;2103375;28;20401;-63
2023/10/06 03:05:39;;;;;;;3.90;2.33;;;;;;;;;;2102320;28;20032;-63
2023/10/06 03:06:58;;;;;;;5.35;3.58;;;;;;;;;;2102521;28;20024;-63
2023/10/06 03:08:21;;;;;;;4.32;3.92;;;;;;;;;;2101364;28;20024;-62
2023/10/06 03:09:47;;;;;;;4.32;2.90;;;;;;;;;;2104315;28;20036;-63
2023/10/06 03:11:09;;;;;;;5.65;3.20;;;;;;;;;;2094951;28;20040;-64
2023/10/06 03:12:31;;;;;;;6.55;3.17;;;;;;;;;;2096667;28;20032;-63
2023/10/06 03:13:54;;;;;;;3.33;2.35;;;;;;;;;;2102036;28;20490;-63
2023/10/06 03:15:33;;;;;;;3.33;1.70;;;;;;;;;;2104035;28;20044;-63
2023/10/06 03:16:52;;;;;;;4.38;2.45;;;;;;;;;;2101911;28;20040;-62
2023/10/06 03:18:15;;;;;;;3.30;1.95;;;;;;;;;;2102809;28;20528;-62
2023/10/06 03:19:41;;;;;;;4.78;2.25;;;;;;;;;;2103610;28;20059;-62
2023/10/06 03:21:04;;;;;;;2.35;1.90;;;;;;;;;;2100443;28;20396;-63
2023/10/06 03:22:27;;;;;;;5.10;2.00;;;;;;;;;;2100935;28;20024;-62
2023/10/06 03:23:57;;;;;;;5.35;2.10;;;;;;;;;;2103851;28;20032;-62
2023/10/06 03:25:17;;;;;;;2.53;1.30;;;;;;;;;;2104310;28;20028;-63
2023/10/06 03:26:43;;;;;;;3.15;2.00;;;;;;;;;;2102110;28;20032;-62
2023/10/06 03:28:03;;;;;;;2.70;1.50;;;;;;;;;;2100658;28;20119;-63
2023/10/06 03:29:34;;;;;;;3.42;1.55;;;;;;;;;;2100963;28;20040;-63
2023/10/06 03:30:53;;;;;;;1.92;1.30;;;;;;;;;;2102295;28;20677;-62
2023/10/06 03:32:27;;;;;;;2.75;1.58;;;;;;;;;;2103880;28;20040;-62
2023/10/06 03:33:46;;;;;;;2.28;1.55;;;;;;;;;;2104466;28;21048;-63
2023/10/06 03:35:17;;;;;;;2.28;1.30;;;;;;;;;;2101897;28;20044;-63
2023/10/06 03:36:45;;;;;;;2.47;1.52;;;;;;;;;;2101361;28;20111;-62
2023/10/06 03:38:13;;;;;;;3.05;2.13;;;;;;;;;;2099068;28;20035;-62
2023/10/06 03:39:38;;;;;;;4.57;2.90;;;;;;;;;;2101893;28;20033;-62
2023/10/06 03:42:20;;;;;;;5.10;3.67;;;;;;;;;;2101054;28;20031;-62
2023/10/06 03:43:51;;;;;;;4.80;3.50;;;;;;;;;;2092730;28;20036;-63
2023/10/06 03:45:18;;;;;;;5.35;3.42;;;;;;;;;;2101772;28;20063;-62
2023/10/06 03:46:38;;;;;;;4.57;2.50;;;;;;;;;;2103375;28;20032;-62
2023/10/06 03:48:08;;;;;;;5.18;2.92;;;;;;;;;;2101670;28;20054;-64
2023/10/06 03:49:27;;;;;;;2.70;2.50;;;;;;;;;;2101654;28;20051;-63
2023/10/06 03:50:46;;;;;;;5.22;2.13;;;;;;;;;;2102606;28;20032;-63
2023/10/06 03:52:09;;;;;;;5.00;2.42;;;;;;;;;;2101001;28;20032;-62
2023/10/06 03:53:31;;;;;;;3.08;2.30;;;;;;;;;;2100186;28;20024;-63
2023/10/06 03:54:52;;;;;;;2.28;1.63;;;;;;;;;;2101496;28;20066;-63
2023/10/06 03:56:16;;;;;;;4.25;1.85;;;;;;;;;;2104336;28;20024;-62
2023/10/06 03:57:35;;;;;;;1.95;1.75;;;;;;;;;;2102155;28;20028;-62
2023/10/06 03:58:54;;;;;;;4.70;1.98;;;;;;;;;;2101258;28;20033;-63
2023/10/06 04:00:19;;;;;;;4.28;1.92;;;;;;;;;;2101365;28;20119;-62
2023/10/06 04:01:38;;;;;;;7.13;2.20;;;;;;;;;;2103619;28;20116;-62
2023/10/06 04:03:03;;;;;;;4.07;2.10;;;;;;;;;;2103846;28;20024;-63
2023/10/06 04:04:22;;;;;;;3.53;2.70;;;;;;;;;;2105403;28;20039;-62
2023/10/06 04:05:44;;;;;;;5.22;2.60;;;;;;;;;;2103605;28;20028;-62
2023/10/06 04:07:06;;;;;;;2.55;1.70;;;;;;;;;;2101418;28;20065;-62
2023/10/06 04:08:25;;;;;;;3.45;2.08;;;;;;;;;;2098654;28;20031;-62
2023/10/06 04:09:49;;;;;;;5.05;2.45;;;;;;;;;;2102474;28;20032;-63
2023/10/06 04:11:08;;;;;;;5.07;3.03;;;;;;;;;;2102943;28;20028;-64
2023/10/06 04:12:27;;;;;;;2.53;1.85;;;;;;;;;;2091373;28;20044;-62
2023/10/06 04:13:46;;;;;;;3.85;2.25;;;;;;;;;;2096010;28;20032;-63
2023/10/06 04:15:05;;;;;;;5.53;2.38;;;;;;;;;;2091918;28;20036;-63
2023/10/06 04:16:25;;;;;;;4.25;2.50;;;;;;;;;;2099275;28;20032;-62
2023/10/06 04:17:43;;;;;;;5.45;1.90;;;;;;;;;;2102547;28;20028;-63
2023/10/06 04:19:03;;;;;;;3.22;2.40;;;;;;;;;;2099514;28;20393;-62
2023/10/06 04:20:22;;;;;;;2.47;2.20;;;;;;;;;;2099709;28;20580;-63
2023/10/06 04:21:42;;;;;;;3.58;1.48;;;;;;;;;;2100984;28;20040;-63
2023/10/06 04:23:02;;;;;;;4.97;1.52;;;;;;;;;;2102399;28;20052;-63
2023/10/06 04:24:21;;;;;;;3.13;1.60;;;;;;;;;;2102744;28;20024;-63
2023/10/06 04:25:41;;;;;;;2.88;1.52;;;;;;;;;;2100005;28;20392;-62
2023/10/06 04:27:00;;;;;;;2.10;1.55;;;;;;;;;;2101466;28;20024;-63
2023/10/06 04:28:19;;;;;;;2.35;1.60;;;;;;;;;;2099650;28;20111;-62
2023/10/06 04:29:40;;;;;;;4.60;1.50;;;;;;;;;;2100244;28;20032;-63
2023/10/06 04:31:01;;;;;;;4.00;1.60;;;;;;;;;;2101191;28;20024;-63
2023/10/06 04:32:20;;;;;;;8.65;1.98;;;;;;;;;;2102075;28;20028;-65
2023/10/06 04:33:39;;;;;;;5.22;2.55;;;;;;;;;;2103234;28;20055;-61
2023/10/06 04:34:57;;;;;;;2.15;1.85;;;;;;;;;;2101052;28;20028;-63
2023/10/06 04:36:20;;;;;;;3.15;2.10;;;;;;;;;;2097536;28;20032;-62
2023/10/06 04:37:39;;;;;;;3.05;2.13;;;;;;;;;;2101756;28;20219;-65
2023/10/06 04:38:58;;;;;;;3.17;2.20;;;;;;;;;;2097083;28;20036;-64
2023/10/06 04:40:19;;;;;;;7.50;3.05;;;;;;;;;;2100101;28;20036;-65
2023/10/06 04:41:41;;;;;;;3.90;2.22;;;;;;;;;;2102490;28;20032;-64
2023/10/06 04:42:59;;;;;;;1.75;1.40;;;;;;;;;;2100588;28;20481;-65
2023/10/06 04:44:18;;;;;;;3.17;1.73;;;;;;;;;;2102476;28;20024;-64
2023/10/06 04:45:38;;;;;;;6.80;2.05;;;;;;;;;;2100738;28;20129;-64
2023/10/06 04:46:58;;;;;;;3.50;2.40;;;;;;;;;;2092591;28;20025;-63
2023/10/06 04:48:18;;;;;;;6.28;3.00;;;;;;;;;;2100029;28;20024;-64
2023/10/06 04:49:37;;;;;;;3.40;2.95;;;;;;;;;;2102112;28;20036;-64
2023/10/06 04:50:56;;;;;;;6.40;2.53;;;;;;;;;;2102170;28;20028;-64
2023/10/06 04:52:15;;;;;;;3.65;2.90;;;;;;;;;;2097808;28;20496;-64
2023/10/06 04:53:38;;;;;;;4.40;3.05;;;;;;;;;;2102407;28;20076;-64
2023/10/06 04:54:56;;;;;;;4.77;2.93;;;;;;;;;;2098120;28;20036;-64
2023/10/06 04:56:16;;;;;;;7.05;2.42;;;;;;;;;;2102283;28;20668;-64
2023/10/06 04:57:35;;;;;;;3.97;1.95;;;;;;;;;;2096299;28;20040;-64
2023/10/06 04:58:54;;;;;;;2.58;1.70;;;;;;;;;;2099243;28;20031;-64
2023/10/06 05:00:20;;;;;;;5.20;1.80;;;;;;;;;;2101656;28;20044;-64
2023/10/06 05:01:39;;;;;;;5.43;2.10;;;;;;;;;;2102009;28;20449;-65
2023/10/06 05:02:59;;;;;;;3.17;2.42;;;;;;;;;;2101066;28;20028;-64
2023/10/06 05:04:18;;;;;;;5.72;2.65;;;;;;;;;;2103294;28;20032;-64
2023/10/06 05:05:42;;;;;;;3.65;1.90;;;;;;;;;;2102244;28;20107;-64
2023/10/06 05:07:01;;;;;;;3.17;2.13;;;;;;;;;;2099012;28;20477;-64
2023/10/06 05:08:20;;;;;;;5.65;2.30;;;;;;;;;;2100326;28;20111;-66
2023/10/06 05:09:40;;;;;;;2.92;2.00;;;;;;;;;;2100562;28;20154;-64
2023/10/06 05:10:58;;;;;;;3.08;1.70;;;;;;;;;;2102141;28;20032;-64
2023/10/06 05:12:18;;;;;;;3.70;1.58;;;;;;;;;;2101805;28;20177;-64
2023/10/06 05:13:37;;;;;;;9.20;1.70;;;;;;;;;;2096701;28;20036;-65
2023/10/06 05:14:57;;;;;;;2.28;1.05;;;;;;;;;;2100472;28;20024;-65
2023/10/06 05:16:18;;;;;;;2.90;1.35;;;;;;;;;;2092148;28;20036;-65
2023/10/06 05:17:37;;;;;;;2.25;1.35;;;;;;;;;;2095497;28;20059;-65
2023/10/06 05:18:56;;;;;;;3.65;1.33;;;;;;;;;;2098669;28;20036;-65
2023/10/06 05:20:20;;;;;;;2.05;1.10;;;;;;;;;;2100772;28;20035;-65
2023/10/06 05:21:39;;;;;;;2.03;1.40;;;;;;;;;;2100062;28;20108;-65
2023/10/06 05:23:02;;;;;;;1.75;1.27;;;;;;;;;;2102748;28;20028;-65
2023/10/06 05:24:21;;;;;;;1.95;1.30;;;;;;;;;;2100986;28;20029;-65
2023/10/06 05:25:40;;;;;;;2.05;1.35;;;;;;;;;;2101925;28;20028;-65
2023/10/06 05:27:02;;;;;;;2.30;1.77;;;;;;;;;;2099911;28;20036;-65
2023/10/06 05:28:21;;;;;;;4.38;1.73;;;;;;;;;;2103188;28;20446;-65
2023/10/06 05:29:40;;;;;;;2.90;1.73;;;;;;;;;;2093022;28;20036;-65
2023/10/06 05:30:59;;;;;;;2.53;1.48;;;;;;;;;;2100180;28;20032;-66
2023/10/06 05:32:18;;;;;;;4.72;1.80;;;;;;;;;;2100782;28;20035;-65
2023/10/06 05:33:37;;;;;;;7.32;2.50;;;;;;;;;;2100888;28;20036;-65
2023/10/06 05:34:57;;;;;;;3.03;1.67;;;;;;;;;;2101353;28;20052;-65
2023/10/06 05:36:16;;;;;;;2.88;1.90;;;;;;;;;;2104049;28;20063;-65
2023/10/06 05:37:35;;;;;;;3.25;1.73;;;;;;;;;;2102307;28;20397;-65
2023/10/06 05:38:55;;;;;;;4.15;1.77;;;;;;;;;;2101093;28;20118;-67
2023/10/06 05:40:16;;;;;;;3.13;1.48;;;;;;;;;;2101227;28;20039;-65
2023/10/06 05:41:35;;;;;;;4.88;1.65;;;;;;;;;;2100025;28;20036;-65
2023/10/06 05:42:54;;;;;;;3.47;1.45;;;;;;;;;;2101692;28;20066;-65
2023/10/06 05:44:13;;;;;;;2.80;2.00;;;;;;;;;;2102178;28;20361;-65
2023/10/06 05:45:32;;;;;;;4.82;2.25;;;;;;;;;;2100043;28;20485;-65
2023/10/06 05:46:51;;;;;;;2.45;1.65;;;;;;;;;;2100630;28;20036;-68
2023/10/06 05:48:15;;;;;;;2.70;1.90;;;;;;;;;;2100858;28;20036;-65
2023/10/06 05:49:38;;;;;;;2.40;2.17;;;;;;;;;;2100121;28;20024;-65
2023/10/06 05:51:04;;;;;;;7.72;1.88;;;;;;;;;;2099866;28;20485;-66
2023/10/06 05:52:23;;;;;;;3.13;1.77;;;;;;;;;;2100230;28;20580;-65
2023/10/06 05:53:43;;;;;;;4.72;1.92;;;;;;;;;;2104175;28;20540;-65
2023/10/06 05:55:04;;;;;;;3.08;1.52;;;;;;;;;;2101664;28;20040;-65
2023/10/06 05:56:26;;;;;;;2.67;1.48;;;;;;;;;;2093289;28;20040;-65
2023/10/06 05:57:52;;;;;;;2.72;1.20;;;;;;;;;;2099304;28;20037;-66
2023/10/06 05:59:18;;;;;;;5.53;1.58;;;;;;;;;;2102668;28;20028;-65
2023/10/06 06:00:43;;;;;;;5.85;1.75;;;;;;;;;;2100206;28;20112;-65
2023/10/06 06:02:04;;;;;;;2.75;1.70;;;;;;;;;;2102404;28;20032;-65
2023/10/06 06:03:26;;;;;;;3.50;1.67;;;;;;;;;;2101738;28;20056;-65
2023/10/06 06:04:45;;;;;;;1.48;1.17;;;;;;;;;;2090921;28;20060;-65
2023/10/06 06:06:08;;;;;;;2.45;1.65;;;;;;;;;;2098872;28;20100;-65
2023/10/06 06:07:27;;;;;;;3.08;1.30;;;;;;;;;;2104375;28;20036;-66
2023/10/06 06:08:49;;;;;;;4.57;1.42;;;;;;;;;;2102637;28;20020;-66
2023/10/06 06:10:13;;;;;;;2.60;1.30;;;;;;;;;;2101537;28;20548;-65
2023/10/06 06:11:32;;;;;;;2.30;1.48;;;;;;;;;;2100837;28;20025;-65
2023/10/06 06:12:51;;;;;;;2.78;1.60;;;;;;;;;;2101503;28;20066;-65
2023/10/06 06:14:10;;;;;;;1.83;1.38;;;;;;;;;;2102092;28;20032;-67
2023/10/06 06:15:29;;;;;;;6.72;1.65;;;;;;;;;;2100980;28;20028;-66
2023/10/06 06:16:48;;;;;;;6.40;1.88;;;;;;;;;;2101053;28;20107;-65
2023/10/06 06:18:08;;;;;;;4.72;1.58;;;;;;;;;;2100857;28;20634;-65
2023/10/06 06:19:28;;;;;;;3.28;2.00;;;;;;;;;;2102066;28;20020;-68
2023/10/06 06:20:46;;;;;;;3.13;1.80;;;;;;;;;;2103122;28;20012;-65
2023/10/06 06:22:05;;;;;;;4.10;1.27;;;;;;;;;;2102389;28;20143;-66
2023/10/06 06:23:25;;;;;;;2.60;1.73;;;;;;;;;;2101974;28;20020;-65
2023/10/06 06:24:44;;;;;;;6.13;1.60;;;;;;;;;;2103373;28;20032;-65
2023/10/06 06:26:04;;;;;;;3.08;1.60;;;;;;;;;;2102591;28;20029;-65
2023/10/06 06:27:23;;;;;;;5.15;1.80;;;;;;;;;;2104035;28;20028;-65
2023/10/06 06:28:43;;;;;;;3.10;1.52;;;;;;;;;;2101703;28;20032;-66
2023/10/06 06:30:03;;;;;;;2.25;1.30;;;;;;;;;;2102990;28;20025;-65
2023/10/06 06:31:22;;;;;;;3.17;1.50;;;;;;;;;;2103737;28;20032;-66
2023/10/06 06:32:41;;;;;;;2.20;1.30;;;;;;;;;;2101343;28;20481;-65
2023/10/06 06:34:04;;;;;;;2.55;1.90;;;;;;;;;;2101864;28;20028;-65
2023/10/06 06:35:24;;;;;;;2.47;1.48;;;;;;;;;;2102741;28;20481;-65
2023/10/06 06:36:44;;;;;;;2.60;1.50;;;;;;;;;;2102587;28;20032;-65
2023/10/06 06:38:04;;;;;;;1.58;1.10;;;;;;;;;;2100444;28;20039;-65
2023/10/06 06:39:23;;;;;;;2.92;1.23;;;;;;;;;;2093455;28;20592;-65
2023/10/06 06:40:43;;;;;;;6.47;1.67;;;;;;;;;;2098531;28;20493;-65
2023/10/06 06:42:04;;;;;;;1.80;1.42;;;;;;;;;;2103971;28;20032;-65
2023/10/06 06:43:23;;;;;;;2.65;1.90;;;;;;;;;;2102826;28;20473;-65
2023/10/06 06:44:47;;;;;;;2.65;1.60;;;;;;;;;;2099980;28;20493;-65
2023/10/06 06:46:07;;;;;;;5.22;1.63;;;;;;;;;;2100710;28;20389;-66
2023/10/06 06:47:26;;;;;;;4.72;1.60;;;;;;;;;;2102747;28;20660;-65
2023/10/06 06:48:46;;;;;;;6.97;1.48;;;;;;;;;;2102128;28;20495;-65
2023/10/06 06:50:06;;;;;;;3.58;1.75;;;;;;;;;;2102990;28;20028;-65
2023/10/06 06:51:28;;;;;;;6.50;2.17;;;;;;;;;;2092798;28;20154;-65
2023/10/06 06:52:48;;;;;;;6.35;1.55;;;;;;;;;;2098515;28;20033;-65
2023/10/06 06:54:07;;;;;;;4.75;1.80;;;;;;;;;;2100461;28;20063;-66
2023/10/06 06:55:29;;;;;;;6.20;1.50;;;;;;;;;;2101858;28;20024;-66
2023/10/06 06:56:48;;;;;;;5.05;1.60;;;;;;;;;;2099091;28;20032;-65
2023/10/06 06:58:10;;;;;;;4.13;1.50;;;;;;;;;;2102534;28;20032;-65
2023/10/06 06:59:31;;;;;;;5.88;1.73;;;;;;;;;;2102810;28;20070;-66
2023/10/06 07:00:50;;;;;;;4.15;1.77;;;;;;;;;;2102199;28;20477;-67
2023/10/06 07:02:12;;;;;;;2.15;1.10;;;;;;;;;;2101982;28;20032;-65
2023/10/06 07:03:31;;;;;;;4.43;1.90;;;;;;;;;;2103165;28;20782;-66
2023/10/06 07:04:51;;;;;;;3.53;1.50;;;;;;;;;;2093592;28;20238;-65
2023/10/06 07:06:16;;;;;;;4.20;1.80;;;;;;;;;;2098710;28;20033;-66
2023/10/06 07:07:35;;;;;;;2.40;1.60;;;;;;;;;;2104043;28;20024;-66
2023/10/06 07:08:54;;;;;;;6.28;2.47;;;;;;;;;;2103584;28;20024;-66
2023/10/06 07:10:14;;;;;;;4.45;1.75;;;;;;;;;;2103440;28;20032;-65
2023/10/06 07:11:34;;;;;;;4.13;1.33;;;;;;;;;;2101365;28;20024;-66
2023/10/06 07:12:53;;;;;;;2.85;1.35;;;;;;;;;;2102463;28;20032;-66
2023/10/06 07:14:14;;;;;;;7.80;1.83;;;;;;;;;;2093624;28;20485;-65
2023/10/06 07:15:33;;;;;;;2.72;1.60;;;;;;;;;;2099730;28;20032;-65
2023/10/06 07:16:53;;;;;;;4.47;1.52;;;;;;;;;;2103235;28;20552;-65
2023/10/06 07:18:12;;;;;;;3.63;1.63;;;;;;;;;;2103744;28;20028;-65
2023/10/06 07:19:31;;;;;;;4.32;1.48;;;;;;;;;;2103978;28;20052;-66
2023/10/06 07:20:49;;;;;;;5.25;1.55;;;;;;;;;;2103854;28;20024;-66
2023/10/06 07:22:10;;;;;;;2.42;1.10;;;;;;;;;;2101372;28;20118;-66
2023/10/06 07:23:29;;;;;;;2.65;1.10;;;;;;;;;;2103626;28;20040;-65
2023/10/06 07:24:50;;;;;;;2.75;1.65;;;;;;;;;;2102517;28;20024;-66
2023/10/06 07:26:10;;;;;;;5.10;1.40;;;;;;;;;;2101795;28;20036;-66
2023/10/06 07:27:34;;;;;;;2.92;1.38;;;;;;;;;;2102812;28;20028;-69
2023/10/06 07:28:53;;;;;;;3.22;1.40;;;;;;;;;;2102450;28;20100;-66
2023/10/06 07:30:14;;;;;;;2.63;1.35;;;;;;;;;;2102601;28;20075;-66
2023/10/06 07:31:33;;;;;;;2.40;1.50;;;;;;;;;;2101208;28;20059;-66
2023/10/06 07:32:54;;;;;;;4.55;1.27;;;;;;;;;;2102830;28;20028;-66
2023/10/06 07:34:14;;;;;;;6.65;1.40;;;;;;;;;;2101772;28;20036;-65
2023/10/06 07:37:21;;;;;;;1.70;1.38;;;;;;;;;;2095716;28;20040;-66
2023/10/06 07:38:41;;;;;;;3.60;1.40;;;;;;;;;;2102337;28;20401;-66
2023/10/06 07:40:03;;;;;;;2.38;1.77;;;;;;;;;;2101409;28;20032;-67
2023/10/06 07:41:26;;;;;;;3.80;1.45;;;;;;;;;;2104082;28;20040;-65
2023/10/06 07:42:46;;;;;;;1.83;1.25;;;;;;;;;;2102402;28;20020;-66
2023/10/06 07:44:05;;;;;;;1.73;1.33;;;;;;;;;;2103675;28;20099;-65
2023/10/06 07:45:26;;;;;;;2.05;1.50;;;;;;;;;;2093446;28;20032;-65
2023/10/06 07:46:46;;;;;;;7.85;1.20;;;;;;;;;;2100664;28;20028;-65
2023/10/06 07:48:05;;;;;;;2.55;1.85;;;;;;;;;;2093023;28;20028;-65
2023/10/06 07:49:25;;;;;;;4.05;1.27;;;;;;;;;;2099241;28;20027;-65
2023/10/06 07:50:44;;;;;;;5.40;1.60;;;;;;;;;;2103028;28;20123;-65
2023/10/06 07:52:04;;;;;;;2.95;1.73;;;;;;;;;;2093245;28;20036;-65
2023/10/06 07:53:23;;;;;;;4.50;1.63;;;;;;;;;;2098936;28;20032;-66
2023/10/06 07:54:43;;;;;;;3.53;1.23;;;;;;;;;;2102380;28;20028;-65
2023/10/06 07:56:06;;;;;;;2.40;1.42;;;;;;;;;;2104072;28;20036;-65
2023/10/06 07:57:31;;;;;;;2.92;1.15;;;;;;;;;;2103252;28;20116;-65
2023/10/06 07:58:52;;;;;;;1.42;1.20;;;;;;;;;;2102005;28;20103;-65
2023/10/06 08:00:18;;;;;;;2.42;1.23;;;;;;;;;;2102649;28;20033;-65
2023/10/06 08:01:38;;;;;;;2.20;0.98;;;;;;;;;;2104010;28;20024;-65
2023/10/06 08:02:58;;;;;;;4.57;1.08;;;;;;;;;;2102636;28;20036;-65
2023/10/06 08:04:18;;;;;;;2.13;1.08;;;;;;;;;;2102821;28;20021;-65
2023/10/06 08:05:38;;;;;;;1.95;1.15;;;;;;;;;;2101991;28;20484;-65
2023/10/06 08:06:57;;;;;;;5.30;1.17;;;;;;;;;;2101701;28;20358;-65
2023/10/06 08:08:16;;;;;;;2.25;1.67;;;;;;;;;;2103112;28;20024;-65
2023/10/06 08:09:38;;;;;;;1.48;1.00;;;;;;;;;;2102117;28;20115;-65
2023/10/06 08:10:57;;;;;;;4.15;0.93;;;;;;;;;;2104676;28;20099;-66
2023/10/06 08:12:17;;;;;;;3.47;1.52;;;;;;;;;;2101697;28;20036;-66
2023/10/06 08:13:37;;;;;;;2.78;1.27;;;;;;;;;;2103706;28;20036;-66